createdAt,value
2018-03-30T00:01:52.040Z,28.90
2018-03-30T00:04:19.712Z,25.80
2018-03-30T00:06:47.784Z,24.80
2018-03-30T00:09:27.152Z,25.20
2018-03-30T00:11:55.137Z,25.37
2018-03-30T00:14:22.763Z,25.80
2018-03-30T00:16:50.502Z,25.27
2018-03-30T00:19:18.109Z,25.87
2018-03-30T00:21:45.691Z,25.63
2018-03-30T00:24:13.655Z,26.30
2018-03-30T00:26:41.273Z,24.47
2018-03-30T00:29:08.929Z,31.37
2018-03-30T00:31:36.896Z,29.60
2018-03-30T00:34:04.490Z,28.23
2018-03-30T00:36:32.383Z,30.10
2018-03-30T00:39:00.007Z,32.53
2018-03-30T00:41:27.889Z,31.53
2018-03-30T00:43:55.563Z,31.70
2018-03-30T00:46:23.197Z,31.03
2018-03-30T00:48:50.929Z,34.53
2018-03-30T00:51:18.551Z,38.40
2018-03-30T00:53:49.098Z,33.37
2018-03-30T00:56:17.095Z,34.07
2018-03-30T00:58:44.780Z,33.57
2018-03-30T01:01:13.431Z,35.80
2018-03-30T01:03:41.166Z,32.50
2018-03-30T01:06:08.838Z,33.40
2018-03-30T01:08:36.752Z,32.27
2018-03-30T01:11:10.164Z,32.20
2018-03-30T01:13:37.779Z,35.60
2018-03-30T01:16:05.428Z,31.63
2018-03-30T01:18:33.044Z,40.20
2018-03-30T01:21:00.743Z,30.77
2018-03-30T01:23:28.343Z,37.43
2018-03-30T01:25:56.045Z,33.00
2018-03-30T01:28:24.356Z,36.33
2018-03-30T01:30:51.995Z,39.97
2018-03-30T01:33:19.673Z,39.27
2018-03-30T01:35:47.352Z,42.60
2018-03-30T01:38:15.205Z,42.10
2018-03-30T01:40:42.787Z,38.37
2018-03-30T01:43:11.046Z,41.47
2018-03-30T01:45:38.912Z,37.83
2018-03-30T01:48:06.767Z,48.40
2018-03-30T01:50:34.479Z,43.70
2018-03-30T01:53:02.219Z,41.40
2018-03-30T01:55:29.891Z,44.10
2018-03-30T01:57:57.471Z,34.03
2018-03-30T02:00:25.097Z,40.93
2018-03-30T02:02:52.734Z,44.77
2018-03-30T02:05:20.512Z,38.30
2018-03-30T02:07:48.488Z,40.37
2018-03-30T02:10:16.091Z,37.17
2018-03-30T02:12:43.682Z,38.20
2018-03-30T02:15:11.335Z,42.47
2018-03-30T02:17:38.923Z,42.97
2018-03-30T02:20:06.798Z,38.60
2018-03-30T02:22:34.760Z,46.43
2018-03-30T02:25:02.364Z,46.90
2018-03-30T02:27:30.304Z,45.73
2018-03-30T02:29:57.941Z,52.33
2018-03-30T02:32:25.747Z,42.77
2018-03-30T02:34:53.389Z,55.03
2018-03-30T02:37:21.258Z,39.73
2018-03-30T02:39:48.892Z,42.43
2018-03-30T02:42:16.564Z,43.23
2018-03-30T02:44:44.192Z,40.23
2018-03-30T02:47:11.850Z,42.90
2018-03-30T02:49:39.488Z,49.60
2018-03-30T02:52:07.084Z,48.07
2018-03-30T02:54:34.748Z,44.40
2018-03-30T02:57:02.638Z,46.90
2018-03-30T02:59:30.219Z,44.00
2018-03-30T03:01:58.084Z,51.53
2018-03-30T03:04:25.711Z,40.50
2018-03-30T03:06:53.370Z,45.77
2018-03-30T03:09:20.964Z,41.07
2018-03-30T03:11:48.566Z,39.53
2018-03-30T03:14:16.188Z,43.63
2018-03-30T03:16:43.979Z,44.00
2018-03-30T03:19:11.705Z,48.40
2018-03-30T03:21:39.302Z,41.73
2018-03-30T03:24:06.958Z,37.77
2018-03-30T03:26:34.811Z,42.67
2018-03-30T03:29:02.405Z,40.23
2018-03-30T03:31:30.185Z,44.23
2018-03-30T03:33:58.207Z,44.23
2018-03-30T03:36:26.174Z,50.33
2018-03-30T03:38:53.976Z,39.90
2018-03-30T03:41:21.842Z,44.90
2018-03-30T03:43:49.567Z,44.33
2018-03-30T03:46:17.365Z,45.97
2018-03-30T03:48:44.964Z,45.67
2018-03-30T03:51:12.564Z,44.97
2018-03-30T03:53:40.190Z,46.87
2018-03-30T03:56:07.953Z,47.60
2018-03-30T03:58:35.665Z,47.03
2018-03-30T04:01:03.318Z,40.50
2018-03-30T04:03:31.027Z,47.33
2018-03-30T04:05:58.634Z,47.73
2018-03-30T04:08:26.319Z,43.27
2018-03-30T04:10:54.029Z,35.27
2018-03-30T04:13:21.625Z,43.50
2018-03-30T04:15:49.239Z,46.53
2018-03-30T04:18:16.907Z,41.80
2018-03-30T04:20:44.599Z,45.83
2018-03-30T04:23:12.546Z,43.37
2018-03-30T04:25:40.230Z,43.07
2018-03-30T04:28:07.846Z,45.20
2018-03-30T04:30:35.587Z,47.40
2018-03-30T04:33:03.254Z,48.93
2018-03-30T04:35:30.943Z,45.87
2018-03-30T04:37:58.536Z,44.40
2018-03-30T04:40:26.425Z,44.50
2018-03-30T04:42:54.056Z,44.33
2018-03-30T04:45:21.662Z,43.10
2018-03-30T04:47:49.407Z,47.77
2018-03-30T04:50:17.018Z,49.53
2018-03-30T04:52:44.645Z,47.33
2018-03-30T04:55:12.314Z,47.43
2018-03-30T04:57:40.268Z,46.77
2018-03-30T05:00:08.443Z,50.50
2018-03-30T05:02:36.068Z,46.33
2018-03-30T05:05:03.652Z,50.60
2018-03-30T05:07:31.274Z,46.67
2018-03-30T05:09:58.951Z,55.73
2018-03-30T05:12:26.795Z,53.27
2018-03-30T05:14:54.421Z,50.93
2018-03-30T05:17:22.273Z,50.40
2018-03-30T05:19:49.991Z,48.00
2018-03-30T05:22:17.583Z,48.37
2018-03-30T05:24:45.583Z,49.87
2018-03-30T05:27:13.547Z,51.87
2018-03-30T05:29:41.155Z,54.37
2018-03-30T05:32:09.068Z,48.23
2018-03-30T05:34:36.660Z,49.17
2018-03-30T05:37:04.497Z,50.27
2018-03-30T05:39:32.121Z,61.30
2018-03-30T05:41:59.778Z,51.13
2018-03-30T05:44:27.707Z,52.27
2018-03-30T05:46:55.485Z,49.07
2018-03-30T05:49:23.185Z,50.37
2018-03-30T05:51:51.008Z,52.50
2018-03-30T05:54:18.691Z,45.63
2018-03-30T05:56:46.342Z,58.80
2018-03-30T05:59:14.207Z,53.93
2018-03-30T06:01:41.999Z,52.13
2018-03-30T06:04:09.835Z,63.23
2018-03-30T06:06:37.782Z,49.70
2018-03-30T06:09:06.366Z,53.50
2018-03-30T06:11:33.944Z,56.67
2018-03-30T06:14:01.524Z,56.17
2018-03-30T06:16:29.142Z,51.50
2018-03-30T06:18:56.799Z,50.40
2018-03-30T06:21:24.459Z,52.80
2018-03-30T06:23:52.074Z,48.20
2018-03-30T06:26:19.729Z,58.67
2018-03-30T06:28:47.391Z,53.37
2018-03-30T06:31:15.325Z,58.30
2018-03-30T06:33:43.138Z,57.43
2018-03-30T06:36:11.051Z,54.90
2018-03-30T06:38:38.655Z,51.20
2018-03-30T06:41:06.489Z,53.47
2018-03-30T06:43:34.992Z,56.87
2018-03-30T06:46:02.625Z,57.93
2018-03-30T06:48:30.571Z,60.80
2018-03-30T06:50:58.171Z,59.87
2018-03-30T06:53:25.823Z,57.40
2018-03-30T06:55:53.736Z,63.50
2018-03-30T06:58:21.412Z,54.93
2018-03-30T07:00:49.375Z,60.97
2018-03-30T07:03:17.077Z,60.00
2018-03-30T07:05:44.694Z,53.30
2018-03-30T07:08:12.305Z,53.77
2018-03-30T07:10:39.920Z,57.27
2018-03-30T07:13:07.834Z,50.97
2018-03-30T07:15:35.452Z,59.77
2018-03-30T07:18:03.209Z,54.53
2018-03-30T07:20:31.132Z,52.07
2018-03-30T07:22:58.744Z,58.60
2018-03-30T07:25:26.601Z,56.50
2018-03-30T07:27:54.254Z,51.17
2018-03-30T07:30:22.274Z,51.57
2018-03-30T07:32:49.877Z,54.63
2018-03-30T07:35:17.478Z,55.43
2018-03-30T07:37:45.125Z,52.10
2018-03-30T07:40:12.962Z,67.47
2018-03-30T07:42:40.537Z,48.27
2018-03-30T07:45:08.174Z,55.60
2018-03-30T07:47:35.761Z,57.17
2018-03-30T07:50:03.399Z,64.40
2018-03-30T07:52:31.158Z,61.33
2018-03-30T07:54:58.733Z,56.77
2018-03-30T07:57:26.782Z,53.37
2018-03-30T07:59:54.387Z,61.53
2018-03-30T08:02:22.065Z,56.53
2018-03-30T08:04:49.725Z,54.77
2018-03-30T08:07:17.365Z,58.80
2018-03-30T08:09:45.035Z,55.67
2018-03-30T08:12:12.794Z,59.13
2018-03-30T08:14:40.406Z,59.00
2018-03-30T08:17:08.384Z,47.53
2018-03-30T08:19:36.057Z,56.13
2018-03-30T08:22:03.667Z,65.83
2018-03-30T08:24:31.281Z,51.57
2018-03-30T08:26:59.147Z,53.30
2018-03-30T08:29:27.307Z,55.00
2018-03-30T08:31:54.919Z,53.80
2018-03-30T08:34:22.534Z,48.37
2018-03-30T08:36:50.235Z,54.50
2018-03-30T08:39:17.824Z,50.10
2018-03-30T08:41:45.802Z,52.43
2018-03-30T08:44:13.386Z,50.33
2018-03-30T08:46:41.010Z,52.27
2018-03-30T08:49:08.656Z,54.77
2018-03-30T08:51:36.585Z,57.17
2018-03-30T08:54:04.190Z,52.40
2018-03-30T08:56:31.830Z,57.27
2018-03-30T08:58:59.475Z,51.47
2018-03-30T09:01:27.144Z,60.83
2018-03-30T09:03:54.809Z,45.50
2018-03-30T09:06:22.487Z,62.63
2018-03-30T09:08:50.130Z,59.60
2018-03-30T09:11:17.713Z,60.47
2018-03-30T09:13:45.393Z,55.73
2018-03-30T09:16:13.720Z,51.40
2018-03-30T09:18:41.303Z,47.80
2018-03-30T09:21:08.874Z,53.27
2018-03-30T09:23:36.878Z,51.77
2018-03-30T09:26:04.470Z,54.97
2018-03-30T09:28:32.065Z,58.00
2018-03-30T09:30:59.709Z,58.37
2018-03-30T09:33:28.111Z,59.03
2018-03-30T09:35:55.706Z,57.67
2018-03-30T09:38:23.811Z,66.83
2018-03-30T09:40:51.402Z,52.93
2018-03-30T09:43:18.996Z,62.03
2018-03-30T09:45:46.873Z,52.83
2018-03-30T09:48:14.539Z,65.67
2018-03-30T09:50:42.531Z,63.57
2018-03-30T09:53:10.494Z,50.00
2018-03-30T09:55:38.371Z,41.60
2018-03-30T09:58:05.975Z,46.67
2018-03-30T10:00:33.669Z,37.20
2018-03-30T10:03:05.301Z,37.83
2018-03-30T10:05:33.000Z,38.33
2018-03-30T10:08:01.086Z,37.40
2018-03-30T10:10:28.696Z,33.47
2018-03-30T10:12:56.752Z,40.33
2018-03-30T10:15:24.357Z,28.47
2018-03-30T10:17:51.935Z,31.90
2018-03-30T10:20:19.974Z,36.07
2018-03-30T10:22:47.566Z,37.60
2018-03-30T10:25:15.150Z,34.10
2018-03-30T10:27:43.159Z,31.53
2018-03-30T10:30:10.791Z,23.80
2018-03-30T10:32:38.390Z,24.20
2018-03-30T10:35:06.302Z,29.43
2018-03-30T10:37:33.987Z,23.23
2018-03-30T10:40:01.586Z,29.13
2018-03-30T10:42:29.217Z,25.80
2018-03-30T10:44:56.912Z,35.23
2018-03-30T10:47:24.543Z,23.37
2018-03-30T10:49:52.234Z,29.43
2018-03-30T10:52:20.274Z,31.23
2018-03-30T10:54:47.950Z,26.20
2018-03-30T10:57:15.649Z,27.10
2018-03-30T10:59:43.312Z,24.23
2018-03-30T11:02:11.395Z,24.10
2018-03-30T11:04:38.991Z,21.03
2018-03-30T11:07:06.594Z,25.70
2018-03-30T11:09:34.212Z,22.07
2018-03-30T11:12:01.810Z,24.60
2018-03-30T11:14:29.875Z,25.40
2018-03-30T11:16:57.538Z,26.57
2018-03-30T11:19:25.149Z,22.20
2018-03-30T11:21:53.049Z,25.73
2018-03-30T11:24:20.962Z,26.27
2018-03-30T11:26:48.560Z,25.77
2018-03-30T11:29:16.222Z,28.47
2018-03-30T11:31:43.795Z,30.20
2018-03-30T11:34:11.413Z,55.40
2018-03-30T11:36:39.046Z,43.97
2018-03-30T11:39:06.646Z,25.10
2018-03-30T11:41:34.499Z,24.63
2018-03-30T11:44:02.123Z,25.67
2018-03-30T11:46:29.723Z,29.60
2018-03-30T11:48:57.331Z,22.30
2018-03-30T11:51:24.942Z,33.47
2018-03-30T11:53:52.929Z,25.70
2018-03-30T11:56:20.554Z,22.80
2018-03-30T11:58:48.378Z,22.40
2018-03-30T12:01:16.007Z,24.40
2018-03-30T12:03:43.691Z,19.87
2018-03-30T12:06:11.318Z,23.70
2018-03-30T12:08:38.907Z,22.67
2018-03-30T12:11:06.873Z,20.73
2018-03-30T12:13:34.732Z,21.73
2018-03-30T12:16:03.000Z,22.07
2018-03-30T12:18:30.726Z,21.73
2018-03-30T12:20:58.321Z,19.57
2018-03-30T12:23:25.972Z,23.53
2018-03-30T12:25:53.567Z,21.37
2018-03-30T12:28:21.464Z,22.50
2018-03-30T12:30:49.392Z,21.97
2018-03-30T12:33:17.534Z,22.53
2018-03-30T12:35:45.124Z,18.40
2018-03-30T12:38:12.804Z,23.37
2018-03-30T12:40:40.424Z,21.40
2018-03-30T12:43:08.086Z,20.07
2018-03-30T12:45:36.078Z,17.63
2018-03-30T12:48:03.745Z,17.40
2018-03-30T12:50:31.361Z,21.20
2018-03-30T12:53:01.853Z,16.30
2018-03-30T12:55:29.563Z,17.17
2018-03-30T12:57:57.159Z,20.87
2018-03-30T13:00:24.810Z,17.43
2018-03-30T13:02:52.653Z,16.47
2018-03-30T13:05:20.442Z,18.30
2018-03-30T13:07:48.020Z,21.50
2018-03-30T13:10:15.620Z,19.07
2018-03-30T13:12:43.312Z,17.30
2018-03-30T13:15:10.931Z,16.10
2018-03-30T13:17:38.606Z,16.47
2018-03-30T13:20:06.247Z,17.20
2018-03-30T13:22:33.906Z,24.87
2018-03-30T13:25:01.513Z,14.97
2018-03-30T13:27:29.114Z,13.27
2018-03-30T13:29:56.836Z,12.47
2018-03-30T13:32:24.432Z,16.90
2018-03-30T13:34:52.067Z,14.10
2018-03-30T13:37:20.372Z,16.03
2018-03-30T13:39:48.042Z,11.50
2018-03-30T13:42:15.644Z,13.17
2018-03-30T13:44:43.662Z,16.43
2018-03-30T13:47:11.447Z,14.70
2018-03-30T13:49:39.129Z,13.00
2018-03-30T13:52:31.274Z,14.60
2018-03-30T13:54:58.988Z,14.03
2018-03-30T13:57:32.271Z,12.97
2018-03-30T14:00:01.439Z,12.57
2018-03-30T14:02:41.308Z,13.20
2018-03-30T14:05:22.724Z,11.83
2018-03-30T14:08:08.104Z,11.90
2018-03-30T14:10:41.559Z,14.63
2018-03-30T14:13:09.260Z,12.27
2018-03-30T14:15:52.595Z,9.10
2018-03-30T14:18:47.276Z,8.60
2018-03-30T14:21:30.888Z,9.57
2018-03-30T14:24:02.992Z,11.10
2018-03-30T14:26:32.887Z,9.97
2018-03-30T14:29:10.964Z,20.27
2018-03-30T14:31:43.298Z,30.13
2018-03-30T14:34:14.827Z,9.93
2018-03-30T14:36:58.553Z,10.80
2018-03-30T14:39:26.368Z,12.50
2018-03-30T14:41:55.001Z,10.00
2018-03-30T14:44:38.605Z,12.03
2018-03-30T14:47:10.104Z,11.10
2018-03-30T14:49:38.661Z,9.10
2018-03-30T14:52:16.104Z,14.90
2018-03-30T14:54:50.502Z,10.73
2018-03-30T14:57:19.963Z,9.43
2018-03-30T15:00:20.025Z,12.17
2018-03-30T15:02:50.796Z,7.10
2018-03-30T15:05:30.307Z,23.60
2018-03-30T15:07:58.770Z,8.90
2018-03-30T15:10:51.168Z,8.30
2018-03-30T15:13:21.560Z,9.83
2018-03-30T15:15:51.601Z,9.20
2018-03-30T15:18:22.118Z,6.67
2018-03-30T15:20:52.427Z,10.33
2018-03-30T15:23:24.445Z,7.97
2018-03-30T15:25:55.771Z,10.77
2018-03-30T15:28:24.351Z,14.77
2018-03-30T15:33:55.903Z,6.53
2018-03-30T15:36:27.271Z,7.77
2018-03-30T15:38:54.901Z,9.47
2018-03-30T15:41:22.977Z,8.53
2018-03-30T15:43:52.618Z,7.63
2018-03-30T15:49:24.468Z,7.17
2018-03-30T15:51:54.798Z,8.77
2018-03-30T15:54:21.860Z,8.30
2018-03-30T15:56:49.521Z,8.17
2018-03-30T15:59:17.184Z,9.17
2018-03-30T16:01:44.870Z,8.80
2018-03-30T16:04:12.440Z,10.10
2018-03-30T16:06:40.029Z,7.30
2018-03-30T16:09:09.520Z,11.47
2018-03-30T16:11:37.953Z,15.03
2018-03-30T16:14:05.569Z,12.67
2018-03-30T16:16:33.454Z,9.53
2018-03-30T16:19:00.520Z,12.33
2018-03-30T16:21:28.385Z,10.67
2018-03-30T16:23:55.488Z,10.33
2018-03-30T16:26:22.892Z,9.10
2018-03-30T16:28:50.519Z,9.43
2018-03-30T16:31:17.577Z,9.47
2018-03-30T16:33:44.627Z,12.47
2018-03-30T16:36:11.727Z,8.63
2018-03-30T16:38:38.772Z,9.93
2018-03-30T16:41:05.849Z,8.77
2018-03-30T16:43:33.086Z,7.20
2018-03-30T16:46:00.145Z,11.10
2018-03-30T16:48:27.190Z,8.00
2018-03-30T16:50:54.304Z,8.67
2018-03-30T16:53:21.363Z,11.30
2018-03-30T16:55:48.793Z,10.80
2018-03-30T16:58:19.135Z,10.90
2018-03-30T17:00:46.286Z,10.73
2018-03-30T17:03:13.323Z,13.00
2018-03-30T17:05:40.738Z,22.70
2018-03-30T17:08:07.822Z,13.40
2018-03-30T17:10:36.344Z,10.10
2018-03-30T17:13:03.673Z,10.90
2018-03-30T17:15:30.733Z,19.03
2018-03-30T17:17:58.366Z,11.50
2018-03-30T17:20:25.412Z,10.47
2018-03-30T17:22:52.701Z,11.00
2018-03-30T17:25:19.850Z,10.77
2018-03-30T17:27:46.948Z,10.33
2018-03-30T17:30:14.050Z,13.93
2018-03-30T17:32:41.180Z,11.77
2018-03-30T17:35:08.215Z,10.93
2018-03-30T17:37:35.575Z,9.97
2018-03-30T17:40:02.648Z,18.20
2018-03-30T17:42:29.972Z,11.40
2018-03-30T17:44:57.629Z,14.77
2018-03-30T17:47:24.678Z,12.87
2018-03-30T17:49:51.730Z,11.40
2018-03-30T17:52:18.810Z,13.90
2018-03-30T17:54:45.863Z,10.80
2018-03-30T17:57:12.970Z,9.40
2018-03-30T17:59:40.023Z,13.30
2018-03-30T18:02:07.376Z,11.33
2018-03-30T18:04:34.449Z,15.43
2018-03-30T18:07:01.512Z,9.17
2018-03-30T18:09:28.592Z,11.40
2018-03-30T18:11:55.687Z,13.07
2018-03-30T18:14:22.776Z,9.60
2018-03-30T18:16:49.856Z,13.80
2018-03-30T18:19:16.975Z,14.93
2018-03-30T18:21:44.018Z,13.27
2018-03-30T18:24:11.068Z,20.70
2018-03-30T18:26:38.181Z,10.33
2018-03-30T18:29:05.221Z,40.07
2018-03-30T18:31:32.294Z,10.97
2018-03-30T18:33:59.732Z,21.30
2018-03-30T18:36:26.785Z,15.10
2018-03-30T18:38:53.843Z,17.50
2018-03-30T18:41:20.949Z,15.23
2018-03-30T18:43:48.437Z,14.07
2018-03-30T18:46:15.510Z,19.80
2018-03-30T18:48:42.947Z,15.10
2018-03-30T18:51:10.067Z,16.00
2018-03-30T18:53:37.134Z,15.30
2018-03-30T18:56:04.200Z,15.20
2018-03-30T18:58:31.323Z,16.57
2018-03-30T19:00:58.387Z,13.10
2018-03-30T19:03:25.520Z,14.53
2018-03-30T19:05:52.844Z,15.27
2018-03-30T19:08:19.931Z,16.17
2018-03-30T19:10:47.030Z,15.83
2018-03-30T19:13:14.674Z,19.67
2018-03-30T19:15:41.743Z,17.40
2018-03-30T19:18:08.804Z,16.97
2018-03-30T19:20:35.876Z,16.17
2018-03-30T19:23:02.930Z,17.90
2018-03-30T19:25:30.363Z,16.40
2018-03-30T19:27:57.432Z,15.30
2018-03-30T19:30:24.550Z,19.20
2018-03-30T19:32:51.944Z,17.53
2018-03-30T19:35:19.014Z,16.13
2018-03-30T19:37:46.066Z,23.53
2018-03-30T19:40:13.244Z,18.63
2018-03-30T19:42:40.335Z,20.00
2018-03-30T19:45:07.446Z,16.80
2018-03-30T19:47:34.556Z,19.57
2018-03-30T19:50:01.629Z,19.07
2018-03-30T19:52:28.695Z,22.47
2018-03-30T19:54:56.277Z,19.20
2018-03-30T19:57:23.766Z,17.03
2018-03-30T19:59:51.125Z,17.03
2018-03-30T20:02:18.498Z,17.33
2018-03-30T20:04:45.839Z,21.40
2018-03-30T20:07:12.902Z,16.23
2018-03-30T20:09:39.986Z,16.07
2018-03-30T20:12:07.034Z,19.20
2018-03-30T20:14:34.154Z,19.07
2018-03-30T20:17:01.311Z,23.40
2018-03-30T20:19:28.383Z,24.67
2018-03-30T20:21:55.437Z,20.77
2018-03-30T20:24:23.120Z,19.30
2018-03-30T20:26:50.191Z,20.80
2018-03-30T20:29:17.535Z,18.13
2018-03-30T20:31:44.694Z,23.10
2018-03-30T20:34:12.137Z,21.10
2018-03-30T20:36:39.190Z,22.57
2018-03-30T20:39:06.278Z,20.40
2018-03-30T20:41:33.386Z,21.07
2018-03-30T20:44:00.457Z,17.43
2018-03-30T20:46:27.545Z,20.73
2018-03-30T20:48:54.721Z,23.97
2018-03-30T20:51:21.825Z,23.43
2018-03-30T20:53:49.151Z,19.00
2018-03-30T20:56:16.561Z,23.60
2018-03-30T20:58:43.689Z,27.53
2018-03-30T21:01:11.184Z,30.13
2018-03-30T21:03:38.232Z,21.60
2018-03-30T21:06:05.693Z,19.77
2018-03-30T21:08:32.911Z,22.47
2018-03-30T21:10:59.984Z,24.40
2018-03-30T21:13:27.071Z,21.10
2018-03-30T21:15:54.219Z,22.60
2018-03-30T21:18:21.352Z,22.57
2018-03-30T21:20:48.432Z,23.60
2018-03-30T21:23:15.517Z,22.20
2018-03-30T21:25:42.639Z,26.90
2018-03-30T21:28:09.808Z,28.23
2018-03-30T21:30:36.897Z,22.87
2018-03-30T21:33:04.072Z,21.57
2018-03-30T21:35:31.138Z,22.03
2018-03-30T21:37:58.193Z,26.13
2018-03-30T21:40:25.664Z,24.57
2018-03-30T21:42:52.763Z,23.73
2018-03-30T21:45:19.830Z,24.57
2018-03-30T21:47:46.925Z,27.33
2018-03-30T21:50:14.011Z,28.73
2018-03-30T21:52:41.221Z,26.13
2018-03-30T21:55:08.276Z,26.13
2018-03-30T21:57:35.339Z,22.63
2018-03-30T22:00:02.452Z,28.10
2018-03-30T22:02:29.552Z,26.97
2018-03-30T22:04:56.775Z,22.67
2018-03-30T22:07:23.900Z,29.80
2018-03-30T22:09:50.949Z,27.80
2018-03-30T22:12:18.001Z,22.57
2018-03-30T22:14:45.079Z,28.70
2018-03-30T22:17:12.130Z,23.87
2018-03-30T22:19:39.202Z,25.60
2018-03-30T22:22:06.304Z,29.40
2018-03-30T22:24:33.376Z,26.37
2018-03-30T22:27:00.732Z,27.60
2018-03-30T22:29:28.207Z,25.80
2018-03-30T22:31:55.283Z,26.27
2018-03-30T22:34:22.390Z,25.50
2018-03-30T22:36:49.533Z,24.50
2018-03-30T22:39:16.635Z,25.67
2018-03-30T22:41:43.691Z,30.40
2018-03-30T22:44:10.793Z,27.17
2018-03-30T22:46:37.982Z,31.57
2018-03-30T22:49:07.121Z,24.67
2018-03-30T22:51:34.362Z,26.77
2018-03-30T22:54:01.435Z,23.13
2018-03-30T22:56:28.730Z,24.90
2018-03-30T22:58:56.223Z,28.73
2018-03-30T23:01:23.619Z,34.77
2018-03-30T23:03:50.655Z,28.47
2018-03-30T23:06:17.750Z,26.33
2018-03-30T23:08:44.813Z,31.50
2018-03-30T23:11:12.296Z,27.80
2018-03-30T23:13:38.946Z,27.60
2018-03-30T23:16:06.025Z,27.80
2018-03-30T23:18:33.105Z,31.27
2018-03-30T23:21:00.149Z,30.90
2018-03-30T23:23:27.209Z,35.60
2018-03-30T23:25:54.686Z,33.63
2018-03-30T23:28:22.491Z,33.93
2018-03-30T23:30:50.033Z,32.07
2018-03-30T23:33:17.489Z,36.80
2018-03-30T23:35:44.824Z,36.10
2018-03-30T23:38:12.350Z,32.50
2018-03-30T23:40:40.088Z,41.00
2018-03-30T23:43:07.236Z,31.77
2018-03-30T23:45:34.300Z,34.37
2018-03-30T23:48:01.737Z,35.80
2018-03-30T23:50:28.789Z,35.00
2018-03-30T23:52:55.857Z,32.20
2018-03-30T23:55:23.017Z,33.50
2018-03-30T23:57:50.056Z,32.83
